sensor_id;sensor_type;location;lat;lon;timestamp;P1;durP1;ratioP1;P2;durP2;ratioP2
18853;SDS011;9556;49.374;19.446;2023-10-09T00:02:05;3.85;;;2.80;;
18853;SDS011;9556;49.374;19.446;2023-10-09T00:04:36;4.03;;;2.70;;
18853;SDS011;9556;49.374;19.446;2023-10-09T00:07:06;4.30;;;2.75;;
18853;SDS011;9556;49.374;19.446;2023-10-09T00:09:38;4.00;;;2.72;;
18853;SDS011;9556;49.374;19.446;2023-10-09T00:12:15;3.92;;;2.70;;
18853;SDS011;9556;49.374;19.446;2023-10-09T00:14:47;4.30;;;2.65;;
18853;SDS011;9556;49.374;19.446;2023-10-09T00:17:15;4.40;;;2.80;;
18853;SDS011;9556;49.374;19.446;2023-10-09T00:19:49;4.60;;;2.80;;
18853;SDS011;9556;49.374;19.446;2023-10-09T00:22:19;4.40;;;2.80;;
18853;SDS011;9556;49.374;19.446;2023-10-09T00:24:55;4.88;;;2.58;;
18853;SDS011;9556;49.374;19.446;2023-10-09T00:27:37;3.90;;;2.60;;
18853;SDS011;9556;49.374;19.446;2023-10-09T00:30:08;3.85;;;2.63;;
18853;SDS011;9556;49.374;19.446;2023-10-09T00:32:38;4.30;;;2.55;;
18853;SDS011;9556;49.374;19.446;2023-10-09T00:35:18;3.10;;;2.25;;
18853;SDS011;9556;49.374;19.446;2023-10-09T00:38:08;3.92;;;2.50;;
18853;SDS011;9556;49.374;19.446;2023-10-09T00:40:47;4.20;;;2.53;;
18853;SDS011;9556;49.374;19.446;2023-10-09T00:43:29;3.90;;;2.55;;
18853;SDS011;9556;49.374;19.446;2023-10-09T00:45:58;3.55;;;2.35;;
18853;SDS011;9556;49.374;19.446;2023-10-09T00:48:34;3.83;;;2.40;;
18853;SDS011;9556;49.374;19.446;2023-10-09T00:51:08;3.38;;;2.38;;
18853;SDS011;9556;49.374;19.446;2023-10-09T00:53:43;3.65;;;2.60;;
18853;SDS011;9556;49.374;19.446;2023-10-09T00:56:15;4.32;;;2.20;;
18853;SDS011;9556;49.374;19.446;2023-10-09T00:58:54;3.53;;;2.40;;
18853;SDS011;9556;49.374;19.446;2023-10-09T01:01:24;4.57;;;2.88;;
18853;SDS011;9556;49.374;19.446;2023-10-09T01:03:53;3.50;;;2.20;;
18853;SDS011;9556;49.374;19.446;2023-10-09T01:06:23;3.67;;;2.30;;
18853;SDS011;9556;49.374;19.446;2023-10-09T01:08:53;3.90;;;2.58;;
18853;SDS011;9556;49.374;19.446;2023-10-09T01:11:34;3.17;;;2.30;;
18853;SDS011;9556;49.374;19.446;2023-10-09T01:14:12;4.03;;;2.42;;
18853;SDS011;9556;49.374;19.446;2023-10-09T01:16:40;4.07;;;2.50;;
18853;SDS011;9556;49.374;19.446;2023-10-09T01:19:08;3.08;;;2.10;;
18853;SDS011;9556;49.374;19.446;2023-10-09T01:21:51;3.22;;;2.40;;
18853;SDS011;9556;49.374;19.446;2023-10-09T01:24:20;3.30;;;2.25;;
18853;SDS011;9556;49.374;19.446;2023-10-09T01:26:51;6.68;;;2.28;;
18853;SDS011;9556;49.374;19.446;2023-10-09T01:29:22;3.30;;;2.13;;
18853;SDS011;9556;49.374;19.446;2023-10-09T01:31:53;2.80;;;1.90;;
18853;SDS011;9556;49.374;19.446;2023-10-09T01:34:21;3.20;;;2.08;;
18853;SDS011;9556;49.374;19.446;2023-10-09T01:37:03;3.70;;;2.30;;
18853;SDS011;9556;49.374;19.446;2023-10-09T01:39:38;3.78;;;2.05;;
18853;SDS011;9556;49.374;19.446;2023-10-09T01:42:06;2.80;;;2.00;;
18853;SDS011;9556;49.374;19.446;2023-10-09T01:44:35;3.78;;;2.30;;
18853;SDS011;9556;49.374;19.446;2023-10-09T01:47:09;2.95;;;2.10;;
18853;SDS011;9556;49.374;19.446;2023-10-09T01:49:39;3.13;;;2.00;;
18853;SDS011;9556;49.374;19.446;2023-10-09T01:52:08;2.95;;;2.00;;
18853;SDS011;9556;49.374;19.446;2023-10-09T01:54:37;3.08;;;1.92;;
18853;SDS011;9556;49.374;19.446;2023-10-09T01:57:06;3.22;;;2.20;;
18853;SDS011;9556;49.374;19.446;2023-10-09T01:59:38;3.40;;;1.98;;
18853;SDS011;9556;49.374;19.446;2023-10-09T02:02:09;3.25;;;1.90;;
18853;SDS011;9556;49.374;19.446;2023-10-09T02:04:50;2.47;;;1.60;;
18853;SDS011;9556;49.374;19.446;2023-10-09T02:07:19;2.50;;;1.65;;
18853;SDS011;9556;49.374;19.446;2023-10-09T02:09:56;2.83;;;1.90;;
18853;SDS011;9556;49.374;19.446;2023-10-09T02:12:24;3.30;;;1.90;;
18853;SDS011;9556;49.374;19.446;2023-10-09T02:14:58;2.67;;;1.90;;
18853;SDS011;9556;49.374;19.446;2023-10-09T02:17:34;2.30;;;1.60;;
18853;SDS011;9556;49.374;19.446;2023-10-09T02:20:17;2.63;;;1.70;;
18853;SDS011;9556;49.374;19.446;2023-10-09T02:22:53;2.42;;;1.80;;
18853;SDS011;9556;49.374;19.446;2023-10-09T02:25:24;2.58;;;1.80;;
18853;SDS011;9556;49.374;19.446;2023-10-09T02:28:01;2.60;;;1.52;;
18853;SDS011;9556;49.374;19.446;2023-10-09T02:30:31;2.05;;;1.40;;
18853;SDS011;9556;49.374;19.446;2023-10-09T02:33:01;2.22;;;1.70;;
18853;SDS011;9556;49.374;19.446;2023-10-09T02:35:34;2.67;;;1.70;;
18853;SDS011;9556;49.374;19.446;2023-10-09T02:38:07;2.75;;;1.42;;
18853;SDS011;9556;49.374;19.446;2023-10-09T02:40:41;2.28;;;1.55;;
18853;SDS011;9556;49.374;19.446;2023-10-09T02:43:29;2.38;;;1.70;;
18853;SDS011;9556;49.374;19.446;2023-10-09T02:46:02;2.75;;;1.60;;
18853;SDS011;9556;49.374;19.446;2023-10-09T02:48:39;2.90;;;1.75;;
18853;SDS011;9556;49.374;19.446;2023-10-09T02:51:12;2.33;;;1.52;;
18853;SDS011;9556;49.374;19.446;2023-10-09T02:53:55;2.25;;;1.70;;
18853;SDS011;9556;49.374;19.446;2023-10-09T02:56:24;2.40;;;1.70;;
18853;SDS011;9556;49.374;19.446;2023-10-09T02:59:02;2.28;;;1.60;;
18853;SDS011;9556;49.374;19.446;2023-10-09T03:01:32;2.63;;;1.42;;
18853;SDS011;9556;49.374;19.446;2023-10-09T03:04:03;2.15;;;1.50;;
18853;SDS011;9556;49.374;19.446;2023-10-09T03:06:31;2.75;;;1.80;;
18853;SDS011;9556;49.374;19.446;2023-10-09T03:09:02;1.77;;;1.40;;
18853;SDS011;9556;49.374;19.446;2023-10-09T03:11:43;2.35;;;1.55;;
18853;SDS011;9556;49.374;19.446;2023-10-09T03:14:13;1.75;;;1.40;;
18853;SDS011;9556;49.374;19.446;2023-10-09T03:16:40;1.85;;;1.35;;
18853;SDS011;9556;49.374;19.446;2023-10-09T03:19:08;2.05;;;1.38;;
18853;SDS011;9556;49.374;19.446;2023-10-09T03:21:38;1.58;;;1.33;;
18853;SDS011;9556;49.374;19.446;2023-10-09T03:24:06;1.67;;;1.40;;
18853;SDS011;9556;49.374;19.446;2023-10-09T03:26:36;1.92;;;1.52;;
18853;SDS011;9556;49.374;19.446;2023-10-09T03:29:04;2.28;;;1.50;;
18853;SDS011;9556;49.374;19.446;2023-10-09T03:31:35;4.05;;;1.42;;
18853;SDS011;9556;49.374;19.446;2023-10-09T03:34:03;1.98;;;1.38;;
18853;SDS011;9556;49.374;19.446;2023-10-09T03:36:30;2.38;;;1.48;;
18853;SDS011;9556;49.374;19.446;2023-10-09T03:39:03;2.38;;;1.50;;
18853;SDS011;9556;49.374;19.446;2023-10-09T03:41:45;2.30;;;1.52;;
18853;SDS011;9556;49.374;19.446;2023-10-09T03:44:16;2.25;;;1.20;;
18853;SDS011;9556;49.374;19.446;2023-10-09T03:46:44;1.88;;;1.40;;
18853;SDS011;9556;49.374;19.446;2023-10-09T03:49:13;2.65;;;1.50;;
18853;SDS011;9556;49.374;19.446;2023-10-09T03:51:47;1.83;;;1.20;;
18853;SDS011;9556;49.374;19.446;2023-10-09T03:54:15;1.90;;;1.30;;
18853;SDS011;9556;49.374;19.446;2023-10-09T03:56:48;2.00;;;1.40;;
18853;SDS011;9556;49.374;19.446;2023-10-09T03:59:17;2.13;;;1.38;;
18853;SDS011;9556;49.374;19.446;2023-10-09T04:01:45;2.33;;;1.08;;
18853;SDS011;9556;49.374;19.446;2023-10-09T04:04:14;1.98;;;1.35;;
18853;SDS011;9556;49.374;19.446;2023-10-09T04:06:42;1.52;;;1.20;;
18853;SDS011;9556;49.374;19.446;2023-10-09T04:09:13;2.00;;;1.40;;
18853;SDS011;9556;49.374;19.446;2023-10-09T04:11:55;2.17;;;1.45;;
18853;SDS011;9556;49.374;19.446;2023-10-09T04:14:46;1.55;;;1.30;;
18853;SDS011;9556;49.374;19.446;2023-10-09T04:17:18;2.00;;;1.40;;
18853;SDS011;9556;49.374;19.446;2023-10-09T04:20:00;1.80;;;1.30;;
18853;SDS011;9556;49.374;19.446;2023-10-09T04:22:44;3.40;;;1.33;;
18853;SDS011;9556;49.374;19.446;2023-10-09T04:25:16;2.20;;;1.33;;
18853;SDS011;9556;49.374;19.446;2023-10-09T04:27:50;1.45;;;1.15;;
18853;SDS011;9556;49.374;19.446;2023-10-09T04:30:35;2.08;;;1.42;;
18853;SDS011;9556;49.374;19.446;2023-10-09T04:33:08;2.58;;;1.52;;
18853;SDS011;9556;49.374;19.446;2023-10-09T04:35:53;1.90;;;1.40;;
18853;SDS011;9556;49.374;19.446;2023-10-09T04:38:34;1.63;;;1.25;;
18853;SDS011;9556;49.374;19.446;2023-10-09T04:41:04;2.40;;;1.50;;
18853;SDS011;9556;49.374;19.446;2023-10-09T04:43:37;1.98;;;1.40;;
18853;SDS011;9556;49.374;19.446;2023-10-09T04:46:11;2.15;;;1.40;;
18853;SDS011;9556;49.374;19.446;2023-10-09T04:48:38;2.45;;;1.33;;
18853;SDS011;9556;49.374;19.446;2023-10-09T04:51:05;2.05;;;1.40;;
18853;SDS011;9556;49.374;19.446;2023-10-09T04:54:02;2.08;;;1.48;;
18853;SDS011;9556;49.374;19.446;2023-10-09T04:56:40;2.08;;;1.50;;
18853;SDS011;9556;49.374;19.446;2023-10-09T04:59:35;2.50;;;1.58;;
18853;SDS011;9556;49.374;19.446;2023-10-09T05:02:23;2.05;;;1.42;;
18853;SDS011;9556;49.374;19.446;2023-10-09T05:05:03;2.13;;;1.30;;
18853;SDS011;9556;49.374;19.446;2023-10-09T05:08:11;2.38;;;1.33;;
18853;SDS011;9556;49.374;19.446;2023-10-09T05:10:45;3.75;;;1.35;;
18853;SDS011;9556;49.374;19.446;2023-10-09T05:13:31;3.58;;;1.60;;
18853;SDS011;9556;49.374;19.446;2023-10-09T05:16:08;3.20;;;1.50;;
18853;SDS011;9556;49.374;19.446;2023-10-09T05:18:42;2.08;;;1.40;;
18853;SDS011;9556;49.374;19.446;2023-10-09T05:21:10;2.95;;;1.15;;
18853;SDS011;9556;49.374;19.446;2023-10-09T05:23:51;5.22;;;1.63;;
18853;SDS011;9556;49.374;19.446;2023-10-09T05:27:11;2.83;;;1.50;;
18853;SDS011;9556;49.374;19.446;2023-10-09T05:29:42;4.95;;;1.70;;
18853;SDS011;9556;49.374;19.446;2023-10-09T05:32:30;6.03;;;1.40;;
18853;SDS011;9556;49.374;19.446;2023-10-09T05:35:01;5.15;;;1.80;;
18853;SDS011;9556;49.374;19.446;2023-10-09T05:37:40;4.20;;;1.63;;
18853;SDS011;9556;49.374;19.446;2023-10-09T05:40:12;4.05;;;1.70;;
18853;SDS011;9556;49.374;19.446;2023-10-09T05:42:48;3.50;;;1.52;;
18853;SDS011;9556;49.374;19.446;2023-10-09T05:45:24;4.03;;;2.00;;
18853;SDS011;9556;49.374;19.446;2023-10-09T05:48:24;3.08;;;1.80;;
18853;SDS011;9556;49.374;19.446;2023-10-09T05:51:10;3.38;;;1.80;;
18853;SDS011;9556;49.374;19.446;2023-10-09T05:53:54;4.43;;;1.98;;
18853;SDS011;9556;49.374;19.446;2023-10-09T05:56:37;3.42;;;1.92;;
18853;SDS011;9556;49.374;19.446;2023-10-09T05:59:21;2.78;;;1.73;;
18853;SDS011;9556;49.374;19.446;2023-10-09T06:02:06;4.53;;;1.88;;
18853;SDS011;9556;49.374;19.446;2023-10-09T06:04:51;3.38;;;1.90;;
18853;SDS011;9556;49.374;19.446;2023-10-09T06:07:22;3.20;;;2.10;;
18853;SDS011;9556;49.374;19.446;2023-10-09T06:10:09;4.90;;;1.98;;
18853;SDS011;9556;49.374;19.446;2023-10-09T06:12:45;3.22;;;1.77;;
18853;SDS011;9556;49.374;19.446;2023-10-09T06:15:28;5.25;;;1.52;;
18853;SDS011;9556;49.374;19.446;2023-10-09T06:18:16;2.35;;;1.40;;
18853;SDS011;9556;49.374;19.446;2023-10-09T06:20:58;1.75;;;1.30;;
18853;SDS011;9556;49.374;19.446;2023-10-09T06:23:36;5.00;;;1.30;;
18853;SDS011;9556;49.374;19.446;2023-10-09T06:26:20;12.88;;;1.33;;
18853;SDS011;9556;49.374;19.446;2023-10-09T06:28:51;2.28;;;1.20;;
18853;SDS011;9556;49.374;19.446;2023-10-09T06:31:39;3.40;;;1.20;;
18853;SDS011;9556;49.374;19.446;2023-10-09T06:34:24;1.52;;;0.85;;
18853;SDS011;9556;49.374;19.446;2023-10-09T06:37:00;3.22;;;1.20;;
18853;SDS011;9556;49.374;19.446;2023-10-09T06:39:43;2.22;;;1.08;;
18853;SDS011;9556;49.374;19.446;2023-10-09T06:42:35;1.42;;;1.13;;
18853;SDS011;9556;49.374;19.446;2023-10-09T06:45:16;1.85;;;1.08;;
18853;SDS011;9556;49.374;19.446;2023-10-09T06:47:47;4.05;;;1.33;;
18853;SDS011;9556;49.374;19.446;2023-10-09T06:50:34;2.55;;;1.10;;
18853;SDS011;9556;49.374;19.446;2023-10-09T06:53:18;2.75;;;1.33;;
18853;SDS011;9556;49.374;19.446;2023-10-09T06:55:47;3.25;;;1.20;;
18853;SDS011;9556;49.374;19.446;2023-10-09T06:58:16;2.63;;;1.23;;
18853;SDS011;9556;49.374;19.446;2023-10-09T07:00:51;2.75;;;1.33;;
18853;SDS011;9556;49.374;19.446;2023-10-09T07:03:39;4.15;;;1.40;;
18853;SDS011;9556;49.374;19.446;2023-10-09T07:06:17;2.75;;;1.27;;
18853;SDS011;9556;49.374;19.446;2023-10-09T07:08:49;1.73;;;1.13;;
18853;SDS011;9556;49.374;19.446;2023-10-09T07:11:42;3.63;;;1.15;;
18853;SDS011;9556;49.374;19.446;2023-10-09T07:14:28;2.28;;;1.42;;
18853;SDS011;9556;49.374;19.446;2023-10-09T07:17:14;2.92;;;1.60;;
18853;SDS011;9556;49.374;19.446;2023-10-09T07:19:47;2.38;;;1.35;;
18853;SDS011;9556;49.374;19.446;2023-10-09T07:22:38;1.98;;;1.40;;
18853;SDS011;9556;49.374;19.446;2023-10-09T07:25:18;1.73;;;1.20;;
18853;SDS011;9556;49.374;19.446;2023-10-09T07:27:59;2.25;;;1.20;;
18853;SDS011;9556;49.374;19.446;2023-10-09T07:30:28;1.55;;;1.20;;
18853;SDS011;9556;49.374;19.446;2023-10-09T07:33:03;2.03;;;1.33;;
18853;SDS011;9556;49.374;19.446;2023-10-09T07:35:42;1.95;;;1.08;;
18853;SDS011;9556;49.374;19.446;2023-10-09T07:38:15;1.65;;;1.00;;
18853;SDS011;9556;49.374;19.446;2023-10-09T07:40:45;1.42;;;1.10;;
18853;SDS011;9556;49.374;19.446;2023-10-09T07:43:22;2.30;;;1.10;;
18853;SDS011;9556;49.374;19.446;2023-10-09T07:45:54;2.97;;;1.20;;
18853;SDS011;9556;49.374;19.446;2023-10-09T07:48:35;1.63;;;0.70;;
18853;SDS011;9556;49.374;19.446;2023-10-09T07:51:13;1.65;;;1.00;;
18853;SDS011;9556;49.374;19.446;2023-10-09T07:53:41;1.45;;;0.90;;
18853;SDS011;9556;49.374;19.446;2023-10-09T07:56:15;2.83;;;1.00;;
18853;SDS011;9556;49.374;19.446;2023-10-09T07:58:47;1.70;;;1.17;;
18853;SDS011;9556;49.374;19.446;2023-10-09T08:01:15;0.93;;;0.73;;
18853;SDS011;9556;49.374;19.446;2023-10-09T08:03:47;1.65;;;0.93;;
18853;SDS011;9556;49.374;19.446;2023-10-09T08:06:22;1.38;;;1.02;;
18853;SDS011;9556;49.374;19.446;2023-10-09T08:09:04;1.20;;;0.77;;
18853;SDS011;9556;49.374;19.446;2023-10-09T08:11:46;4.93;;;1.17;;
18853;SDS011;9556;49.374;19.446;2023-10-09T08:14:32;2.90;;;1.30;;
18853;SDS011;9556;49.374;19.446;2023-10-09T08:17:14;1.50;;;1.00;;
18853;SDS011;9556;49.374;19.446;2023-10-09T08:19:47;2.05;;;1.10;;
18853;SDS011;9556;49.374;19.446;2023-10-09T08:22:22;1.50;;;0.90;;
18853;SDS011;9556;49.374;19.446;2023-10-09T08:25:15;1.17;;;0.80;;
18853;SDS011;9556;49.374;19.446;2023-10-09T08:27:54;1.48;;;1.00;;
18853;SDS011;9556;49.374;19.446;2023-10-09T08:30:24;1.50;;;1.00;;
18853;SDS011;9556;49.374;19.446;2023-10-09T08:32:54;1.20;;;1.05;;
18853;SDS011;9556;49.374;19.446;2023-10-09T08:35:28;1.92;;;0.95;;
18853;SDS011;9556;49.374;19.446;2023-10-09T08:37:59;1.45;;;1.00;;
18853;SDS011;9556;49.374;19.446;2023-10-09T08:40:33;1.60;;;1.00;;
18853;SDS011;9556;49.374;19.446;2023-10-09T08:43:05;1.83;;;1.13;;
18853;SDS011;9556;49.374;19.446;2023-10-09T08:45:37;1.60;;;1.00;;
18853;SDS011;9556;49.374;19.446;2023-10-09T08:48:08;1.92;;;1.17;;
18853;SDS011;9556;49.374;19.446;2023-10-09T08:50:40;1.42;;;0.90;;
18853;SDS011;9556;49.374;19.446;2023-10-09T08:53:08;2.40;;;1.20;;
18853;SDS011;9556;49.374;19.446;2023-10-09T08:55:37;5.93;;;1.08;;
18853;SDS011;9556;49.374;19.446;2023-10-09T08:58:05;1.33;;;0.80;;
18853;SDS011;9556;49.374;19.446;2023-10-09T09:00:39;4.30;;;1.05;;
18853;SDS011;9556;49.374;19.446;2023-10-09T09:03:10;2.25;;;1.30;;
18853;SDS011;9556;49.374;19.446;2023-10-09T09:05:38;1.90;;;1.35;;
18853;SDS011;9556;49.374;19.446;2023-10-09T09:08:11;1.85;;;1.15;;
18853;SDS011;9556;49.374;19.446;2023-10-09T09:10:50;3.08;;;1.10;;
18853;SDS011;9556;49.374;19.446;2023-10-09T09:13:18;2.40;;;1.42;;
18853;SDS011;9556;49.374;19.446;2023-10-09T09:15:48;2.03;;;1.20;;
18853;SDS011;9556;49.374;19.446;2023-10-09T09:18:19;1.88;;;1.20;;
18853;SDS011;9556;49.374;19.446;2023-10-09T09:20:47;2.30;;;1.30;;
18853;SDS011;9556;49.374;19.446;2023-10-09T09:23:18;1.73;;;1.08;;
18853;SDS011;9556;49.374;19.446;2023-10-09T09:25:49;1.55;;;1.00;;
18853;SDS011;9556;49.374;19.446;2023-10-09T09:28:24;1.08;;;0.85;;
18853;SDS011;9556;49.374;19.446;2023-10-09T09:31:10;2.45;;;1.10;;
18853;SDS011;9556;49.374;19.446;2023-10-09T09:33:39;1.63;;;0.98;;
18853;SDS011;9556;49.374;19.446;2023-10-09T09:36:07;4.45;;;0.80;;
18853;SDS011;9556;49.374;19.446;2023-10-09T09:38:36;1.58;;;1.00;;
18853;SDS011;9556;49.374;19.446;2023-10-09T09:41:13;1.42;;;0.88;;
18853;SDS011;9556;49.374;19.446;2023-10-09T09:43:50;1.27;;;0.95;;
18853;SDS011;9556;49.374;19.446;2023-10-09T09:46:22;3.63;;;1.02;;
18853;SDS011;9556;49.374;19.446;2023-10-09T09:48:57;1.83;;;0.90;;
18853;SDS011;9556;49.374;19.446;2023-10-09T09:51:50;1.63;;;1.02;;
18853;SDS011;9556;49.374;19.446;2023-10-09T09:54:24;1.60;;;0.90;;
18853;SDS011;9556;49.374;19.446;2023-10-09T09:57:04;1.58;;;0.98;;
18853;SDS011;9556;49.374;19.446;2023-10-09T09:59:41;1.42;;;1.10;;
18853;SDS011;9556;49.374;19.446;2023-10-09T10:02:24;1.50;;;1.00;;
18853;SDS011;9556;49.374;19.446;2023-10-09T10:05:04;1.23;;;0.90;;
18853;SDS011;9556;49.374;19.446;2023-10-09T10:10:54;1.52;;;0.90;;
18853;SDS011;9556;49.374;19.446;2023-10-09T10:28:34;2.13;;;1.00;;
18853;SDS011;9556;49.374;19.446;2023-10-09T10:37:32;1.45;;;0.77;;
18853;SDS011;9556;49.374;19.446;2023-10-09T10:40:10;1.95;;;0.85;;
18853;SDS011;9556;49.374;19.446;2023-10-09T11:24:54;1.33;;;0.70;;
18853;SDS011;9556;49.374;19.446;2023-10-09T11:27:45;1.17;;;0.70;;
18853;SDS011;9556;49.374;19.446;2023-10-09T11:30:47;3.80;;;0.98;;
18853;SDS011;9556;49.374;19.446;2023-10-09T11:33:31;1.02;;;0.80;;
18853;SDS011;9556;49.374;19.446;2023-10-09T11:36:24;0.80;;;0.50;;
18853;SDS011;9556;49.374;19.446;2023-10-09T11:39:25;0.90;;;0.80;;
18853;SDS011;9556;49.374;19.446;2023-10-09T11:45:19;1.17;;;0.80;;
18853;SDS011;9556;49.374;19.446;2023-10-09T11:47:56;0.88;;;0.80;;
18853;SDS011;9556;49.374;19.446;2023-10-09T11:50:40;1.50;;;0.90;;
18853;SDS011;9556;49.374;19.446;2023-10-09T11:53:22;1.10;;;0.70;;
18853;SDS011;9556;49.374;19.446;2023-10-09T11:56:04;0.85;;;0.60;;
18853;SDS011;9556;49.374;19.446;2023-10-09T11:58:38;2.60;;;1.00;;
18853;SDS011;9556;49.374;19.446;2023-10-09T12:39:57;2.03;;;0.95;;
18853;SDS011;9556;49.374;19.446;2023-10-09T12:42:30;5.07;;;0.82;;
18853;SDS011;9556;49.374;19.446;2023-10-09T12:44:57;1.95;;;0.80;;
18853;SDS011;9556;49.374;19.446;2023-10-09T12:47:33;0.90;;;0.50;;
18853;SDS011;9556;49.374;19.446;2023-10-09T12:50:02;2.45;;;0.80;;
18853;SDS011;9556;49.374;19.446;2023-10-09T12:52:35;2.17;;;0.90;;
18853;SDS011;9556;49.374;19.446;2023-10-09T12:55:04;1.10;;;0.70;;
18853;SDS011;9556;49.374;19.446;2023-10-09T12:57:38;4.57;;;0.77;;
18853;SDS011;9556;49.374;19.446;2023-10-09T13:00:19;3.63;;;1.20;;
18853;SDS011;9556;49.374;19.446;2023-10-09T13:03:30;5.25;;;1.20;;
18853;SDS011;9556;49.374;19.446;2023-10-09T13:08:29;3.72;;;0.98;;
18853;SDS011;9556;49.374;19.446;2023-10-09T13:11:03;2.75;;;0.90;;
18853;SDS011;9556;49.374;19.446;2023-10-09T13:13:35;2.90;;;0.73;;
18853;SDS011;9556;49.374;19.446;2023-10-09T13:16:10;1.50;;;0.70;;
18853;SDS011;9556;49.374;19.446;2023-10-09T13:18:48;1.25;;;0.90;;
18853;SDS011;9556;49.374;19.446;2023-10-09T13:21:28;2.40;;;0.77;;
18853;SDS011;9556;49.374;19.446;2023-10-09T13:24:20;1.70;;;0.90;;
18853;SDS011;9556;49.374;19.446;2023-10-09T13:27:05;1.42;;;0.88;;
18853;SDS011;9556;49.374;19.446;2023-10-09T13:29:53;2.22;;;1.10;;
18853;SDS011;9556;49.374;19.446;2023-10-09T13:32:43;1.50;;;0.85;;
18853;SDS011;9556;49.374;19.446;2023-10-09T13:35:16;1.30;;;0.73;;
18853;SDS011;9556;49.374;19.446;2023-10-09T13:37:46;1.48;;;0.98;;
18853;SDS011;9556;49.374;19.446;2023-10-09T13:40:19;1.58;;;0.95;;
18853;SDS011;9556;49.374;19.446;2023-10-09T13:42:58;3.30;;;1.10;;
18853;SDS011;9556;49.374;19.446;2023-10-09T13:46:08;3.28;;;1.40;;
18853;SDS011;9556;49.374;19.446;2023-10-09T13:48:22;2.20;;;0.88;;
18853;SDS011;9556;49.374;19.446;2023-10-09T13:50:50;2.00;;;1.00;;
18853;SDS011;9556;49.374;19.446;2023-10-09T13:53:18;3.47;;;1.00;;
18853;SDS011;9556;49.374;19.446;2023-10-09T13:55:46;5.07;;;1.20;;
18853;SDS011;9556;49.374;19.446;2023-10-09T14:01:20;2.92;;;1.40;;
18853;SDS011;9556;49.374;19.446;2023-10-09T14:03:53;4.15;;;1.70;;
18853;SDS011;9556;49.374;19.446;2023-10-09T14:06:25;3.28;;;1.67;;
18853;SDS011;9556;49.374;19.446;2023-10-09T14:12:03;5.03;;;1.60;;
18853;SDS011;9556;49.374;19.446;2023-10-09T14:14:33;14.23;;;1.90;;
18853;SDS011;9556;49.374;19.446;2023-10-09T14:17:04;5.43;;;1.80;;
18853;SDS011;9556;49.374;19.446;2023-10-09T14:19:37;3.78;;;1.77;;
18853;SDS011;9556;49.374;19.446;2023-10-09T14:22:04;3.95;;;1.60;;
18853;SDS011;9556;49.374;19.446;2023-10-09T14:24:32;12.77;;;1.90;;
18853;SDS011;9556;49.374;19.446;2023-10-09T14:27:00;4.22;;;1.88;;
18853;SDS011;9556;49.374;19.446;2023-10-09T14:29:34;6.22;;;2.78;;
18853;SDS011;9556;49.374;19.446;2023-10-09T14:32:03;3.97;;;2.13;;
18853;SDS011;9556;49.374;19.446;2023-10-09T14:34:33;4.97;;;1.98;;
18853;SDS011;9556;49.374;19.446;2023-10-09T14:37:08;3.40;;;2.17;;
18853;SDS011;9556;49.374;19.446;2023-10-09T14:39:37;3.70;;;2.40;;
18853;SDS011;9556;49.374;19.446;2023-10-09T14:42:19;9.18;;;2.40;;
18853;SDS011;9556;49.374;19.446;2023-10-09T14:44:49;3.85;;;2.20;;
18853;SDS011;9556;49.374;19.446;2023-10-09T14:47:16;4.38;;;1.58;;
18853;SDS011;9556;49.374;19.446;2023-10-09T14:55:27;3.40;;;1.83;;
18853;SDS011;9556;49.374;19.446;2023-10-09T14:58:13;3.05;;;1.80;;
18853;SDS011;9556;49.374;19.446;2023-10-09T15:00:41;3.05;;;1.70;;
18853;SDS011;9556;49.374;19.446;2023-10-09T15:03:12;2.83;;;1.90;;
18853;SDS011;9556;49.374;19.446;2023-10-09T15:05:40;3.15;;;1.80;;
18853;SDS011;9556;49.374;19.446;2023-10-09T15:08:08;3.75;;;1.83;;
18853;SDS011;9556;49.374;19.446;2023-10-09T15:10:43;3.05;;;2.00;;
18853;SDS011;9556;49.374;19.446;2023-10-09T15:13:12;7.20;;;2.53;;
18853;SDS011;9556;49.374;19.446;2023-10-09T15:15:42;3.63;;;2.33;;
18853;SDS011;9556;49.374;19.446;2023-10-09T15:18:46;4.30;;;2.20;;
18853;SDS011;9556;49.374;19.446;2023-10-09T15:21:23;4.75;;;2.63;;
18853;SDS011;9556;49.374;19.446;2023-10-09T15:23:57;5.75;;;2.83;;
18853;SDS011;9556;49.374;19.446;2023-10-09T15:26:28;4.65;;;3.38;;
18853;SDS011;9556;49.374;19.446;2023-10-09T15:29:00;5.80;;;3.10;;
18853;SDS011;9556;49.374;19.446;2023-10-09T15:31:36;3.97;;;2.40;;
18853;SDS011;9556;49.374;19.446;2023-10-09T15:34:05;4.57;;;2.50;;
18853;SDS011;9556;49.374;19.446;2023-10-09T15:36:35;2.60;;;2.10;;
18853;SDS011;9556;49.374;19.446;2023-10-09T15:39:07;3.47;;;2.35;;
18853;SDS011;9556;49.374;19.446;2023-10-09T15:41:39;3.92;;;2.75;;
18853;SDS011;9556;49.374;19.446;2023-10-09T15:44:06;3.03;;;2.50;;
18853;SDS011;9556;49.374;19.446;2023-10-09T15:46:34;5.00;;;3.00;;
18853;SDS011;9556;49.374;19.446;2023-10-09T15:49:01;5.70;;;3.17;;
18853;SDS011;9556;49.374;19.446;2023-10-09T15:51:34;3.92;;;2.70;;
18853;SDS011;9556;49.374;19.446;2023-10-09T15:54:14;4.10;;;2.45;;
18853;SDS011;9556;49.374;19.446;2023-10-09T15:56:45;3.55;;;2.58;;
18853;SDS011;9556;49.374;19.446;2023-10-09T15:59:14;5.65;;;2.20;;
18853;SDS011;9556;49.374;19.446;2023-10-09T16:01:44;4.00;;;2.65;;
18853;SDS011;9556;49.374;19.446;2023-10-09T16:04:12;4.43;;;2.50;;
18853;SDS011;9556;49.374;19.446;2023-10-09T16:06:42;3.47;;;2.40;;
18853;SDS011;9556;49.374;19.446;2023-10-09T16:09:10;4.25;;;2.42;;
18853;SDS011;9556;49.374;19.446;2023-10-09T16:11:47;4.15;;;2.40;;
18853;SDS011;9556;49.374;19.446;2023-10-09T16:14:15;5.53;;;2.33;;
18853;SDS011;9556;49.374;19.446;2023-10-09T16:16:44;4.40;;;2.22;;
18853;SDS011;9556;49.374;19.446;2023-10-09T16:19:20;3.30;;;2.30;;
18853;SDS011;9556;49.374;19.446;2023-10-09T16:21:50;3.20;;;2.17;;
18853;SDS011;9556;49.374;19.446;2023-10-09T16:24:18;3.70;;;2.35;;
18853;SDS011;9556;49.374;19.446;2023-10-09T16:26:45;3.63;;;2.40;;
18853;SDS011;9556;49.374;19.446;2023-10-09T16:29:17;3.13;;;2.00;;
18853;SDS011;9556;49.374;19.446;2023-10-09T16:31:45;3.55;;;2.28;;
18853;SDS011;9556;49.374;19.446;2023-10-09T16:34:14;6.72;;;1.95;;
18853;SDS011;9556;49.374;19.446;2023-10-09T16:36:42;3.95;;;1.95;;
18853;SDS011;9556;49.374;19.446;2023-10-09T16:39:10;3.17;;;1.95;;
18853;SDS011;9556;49.374;19.446;2023-10-09T16:41:47;1.77;;;1.42;;
18853;SDS011;9556;49.374;19.446;2023-10-09T16:44:15;2.55;;;1.98;;
18853;SDS011;9556;49.374;19.446;2023-10-09T16:46:44;3.67;;;2.08;;
18853;SDS011;9556;49.374;19.446;2023-10-09T16:49:12;4.22;;;2.38;;
18853;SDS011;9556;49.374;19.446;2023-10-09T16:51:40;2.75;;;2.08;;
18853;SDS011;9556;49.374;19.446;2023-10-09T16:54:08;3.58;;;1.95;;
18853;SDS011;9556;49.374;19.446;2023-10-09T16:56:40;3.38;;;2.00;;
18853;SDS011;9556;49.374;19.446;2023-10-09T16:59:08;4.45;;;1.83;;
18853;SDS011;9556;49.374;19.446;2023-10-09T17:01:39;5.03;;;2.15;;
18853;SDS011;9556;49.374;19.446;2023-10-09T17:04:07;6.18;;;2.38;;
18853;SDS011;9556;49.374;19.446;2023-10-09T17:06:37;6.50;;;2.47;;
18853;SDS011;9556;49.374;19.446;2023-10-09T17:09:04;3.83;;;2.28;;
18853;SDS011;9556;49.374;19.446;2023-10-09T17:11:42;5.30;;;2.40;;
18853;SDS011;9556;49.374;19.446;2023-10-09T17:14:21;9.07;;;2.92;;
18853;SDS011;9556;49.374;19.446;2023-10-09T17:16:53;6.78;;;2.95;;
18853;SDS011;9556;49.374;19.446;2023-10-09T17:19:25;9.77;;;2.88;;
18853;SDS011;9556;49.374;19.446;2023-10-09T17:21:52;8.23;;;3.50;;
18853;SDS011;9556;49.374;19.446;2023-10-09T17:24:23;6.85;;;2.92;;
18853;SDS011;9556;49.374;19.446;2023-10-09T17:26:51;6.80;;;2.90;;
18853;SDS011;9556;49.374;19.446;2023-10-09T17:29:20;4.95;;;2.58;;
18853;SDS011;9556;49.374;19.446;2023-10-09T17:31:48;11.18;;;2.88;;
18853;SDS011;9556;49.374;19.446;2023-10-09T17:34:22;7.40;;;2.63;;
18853;SDS011;9556;49.374;19.446;2023-10-09T17:36:56;8.75;;;3.08;;
18853;SDS011;9556;49.374;19.446;2023-10-09T17:42:20;10.63;;;3.42;;